Time;durP1;ratioP1;P1;durP2;ratioP2;P2;SDS_P1;SDS_P2;PMS_P1;PMS_P2;Temp;Humidity;BMP_temperature;BMP_pressure;BME280_temperature;BME280_humidity;BME280_pressure;Samples;Min_cycle;Max_cycle;Signal;HPM_P1;HPM_P2
2022/04/15 00:01:29;;;;;;;12.53;11.00;;;;;;;15.37;95.29;100398.72;1776974;80;21298;-58
2022/04/15 00:03:56;;;;;;;14.97;11.93;;;;;;;15.29;95.53;100408.97;1776828;80;21796;-57
2022/04/15 00:06:24;;;;;;;15.07;11.20;;;;;;;15.25;95.75;100415.15;1779284;80;21237;-69
2022/04/15 00:08:51;;;;;;;12.43;10.97;;;;;;;15.16;96.33;100419.05;1779563;80;21362;-57
2022/04/15 00:11:19;;;;;;;15.07;11.43;;;;;;;15.24;94.94;100418.80;1778155;80;21639;-59
2022/04/15 00:13:47;;;;;;;13.03;10.73;;;;;;;15.31;93.74;100420.88;1777445;80;21762;-57
2022/04/15 00:16:14;;;;;;;14.53;11.10;;;;;;;15.39;92.13;100424.28;1779300;80;21748;-62
2022/04/15 00:18:43;;;;;;;13.67;10.43;;;;;;;15.36;92.44;100422.88;1779627;80;21732;-58
2022/04/15 00:21:10;;;;;;;14.07;10.97;;;;;;;15.49;89.78;100418.05;1778165;80;21878;-58
2022/04/15 00:23:38;;;;;;;13.50;11.10;;;;;;;15.56;86.56;100413.56;1779998;80;21158;-59
2022/04/15 00:26:06;;;;;;;16.53;11.83;;;;;;;15.47;86.52;100418.78;1779705;80;21248;-61
2022/04/15 00:28:35;;;;;;;12.93;11.30;;;;;;;15.51;86.14;100419.97;1779354;80;21286;-57
2022/04/15 00:31:01;;;;;;;12.10;9.73;;;;;;;15.46;86.58;100429.00;1779593;80;21173;-57
2022/04/15 00:33:29;;;;;;;13.63;10.50;;;;;;;15.37;87.49;100424.99;1777919;80;21216;-58
2022/04/15 00:35:58;;;;;;;12.27;10.90;;;;;;;15.32;87.79;100429.56;1779402;80;21391;-59
2022/04/15 00:38:24;;;;;;;13.43;11.13;;;;;;;15.27;88.10;100435.45;1778425;80;21997;-65
2022/04/15 00:40:52;;;;;;;13.03;11.40;;;;;;;15.34;87.51;100431.46;1778293;80;21248;-59
2022/04/15 00:43:19;;;;;;;15.97;10.60;;;;;;;15.37;88.47;100431.55;1779782;80;21250;-57
2022/04/15 00:45:47;;;;;;;13.80;11.03;;;;;;;15.50;87.11;100423.63;1779725;80;21302;-57
2022/04/15 00:48:16;;;;;;;17.20;11.70;;;;;;;15.46;87.70;100429.00;1778673;80;21282;-58
2022/04/15 00:50:43;;;;;;;16.07;12.07;;;;;;;15.42;88.46;100438.29;1778089;80;21199;-58
2022/04/15 00:53:12;;;;;;;13.00;10.57;;;;;;;15.40;88.44;100437.71;1779211;80;21673;-57
2022/04/15 00:55:40;;;;;;;15.23;11.40;;;;;;;15.30;89.21;100444.23;1778597;80;21283;-58
2022/04/15 00:58:07;;;;;;;12.87;10.57;;;;;;;15.31;89.54;100451.09;1779644;80;21164;-58
2022/04/15 01:00:36;;;;;;;14.57;11.13;;;;;;;15.01;93.14;100448.69;1779492;80;21156;-65
2022/04/15 01:03:06;;;;;;;13.87;11.77;;;;;;;14.95;94.58;100451.62;1764889;80;21398;-58
2022/04/15 01:05:33;;;;;;;16.00;12.23;;;;;;;14.96;95.08;100452.42;1776756;80;21153;-57
2022/04/15 01:08:03;;;;;;;14.63;10.83;;;;;;;14.84;96.73;100453.05;1777234;80;21389;-57
2022/04/15 01:10:33;;;;;;;15.63;11.75;;;;;;;14.77;97.39;100458.02;1776618;80;21676;-58
2022/04/15 01:13:04;;;;;;;13.50;11.97;;;;;;;14.58;100.00;100458.36;1764657;80;21039;-60
2022/04/15 01:15:31;;;;;;;15.33;11.63;;;;;;;14.65;99.85;100459.16;1722734;80;21972;-58
2022/04/15 01:17:58;;;;;;;14.67;11.60;;;;;;;14.66;99.45;100456.86;1710589;80;21112;-57
2022/04/15 01:20:24;;;;;;;15.30;11.87;;;;;;;14.64;99.01;100454.93;1777318;80;21049;-57
2022/04/15 01:23:07;;;;;;;14.20;11.83;;;;;;;14.67;98.52;100456.34;1774350;80;21273;-59
2022/04/15 01:25:34;;;;;;;14.47;11.37;;;;;;;14.74;96.29;100459.26;1774306;80;21042;-57
2022/04/15 01:28:01;;;;;;;15.53;13.45;;;;;;;14.51;98.50;100452.34;1764942;80;21246;-59
2022/04/15 01:30:27;;;;;;;13.90;11.53;;;;;;;14.53;97.66;100455.04;1776937;80;21029;-57
2022/04/15 01:32:54;;;;;;;16.00;11.37;;;;;;;14.45;97.88;100463.60;1775479;80;21208;-58
2022/04/15 01:35:21;;;;;;;13.97;11.27;;;;;;;14.29;99.01;100459.08;1775827;80;21308;-57
2022/04/15 01:37:48;;;;;;;16.37;12.07;;;;;;;14.25;99.66;100457.87;1776228;80;21199;-57
2022/04/15 01:40:18;;;;;;;13.83;11.30;;;;;;;14.45;97.03;100454.42;1777114;80;21156;-60
2022/04/15 01:42:46;;;;;;;14.33;11.38;;;;;;;14.36;96.45;100452.52;1777135;80;21354;-64
2022/04/15 01:45:13;;;;;;;14.77;10.73;;;;;;;14.34;96.55;100455.33;1775829;80;20970;-57
2022/04/15 01:47:40;;;;;;;13.67;11.27;;;;;;;14.19;97.74;100456.55;1777203;79;22210;-57
2022/04/15 01:50:08;;;;;;;14.47;11.80;;;;;;;14.11;98.50;100458.87;1775857;80;21259;-57
2022/04/15 01:52:36;;;;;;;14.20;12.53;;;;;;;14.12;98.42;100457.85;1777605;80;21221;-58
2022/04/15 01:55:05;;;;;;;14.97;12.33;;;;;;;14.09;97.79;100456.94;1762231;80;21048;-60
2022/04/15 01:57:33;;;;;;;15.18;12.23;;;;;;;14.06;96.48;100464.72;1775497;80;21205;-57
2022/04/15 02:00:02;;;;;;;15.13;12.40;;;;;;;14.20;94.85;100466.82;1766113;80;20975;-60
2022/04/15 02:02:33;;;;;;;14.60;11.97;;;;;;;14.14;95.66;100470.27;1774914;80;21565;-58
2022/04/15 02:05:00;;;;;;;14.73;12.35;;;;;;;13.98;97.85;100466.22;1776232;80;22309;-57
2022/04/15 02:07:26;;;;;;;15.83;13.17;;;;;;;14.05;97.48;100471.45;1776009;80;21502;-57
2022/04/15 02:09:53;;;;;;;14.90;11.77;;;;;;;13.95;98.22;100472.37;1776572;80;21310;-57
2022/04/15 02:12:20;;;;;;;16.07;12.27;;;;;;;14.12;95.88;100477.00;1776864;80;21106;-57
2022/04/15 02:14:47;;;;;;;17.23;13.45;;;;;;;14.00;94.33;100475.98;1777165;80;21406;-57
2022/04/15 02:17:13;;;;;;;15.23;12.70;;;;;;;13.97;95.22;100470.34;1776331;80;21358;-58
2022/04/15 02:19:41;;;;;;;17.77;12.37;;;;;;;13.92;95.61;100470.14;1777172;80;21535;-57
2022/04/15 02:22:08;;;;;;;15.63;13.08;;;;;;;13.91;94.92;100471.16;1775812;80;21846;-57
2022/04/15 02:24:34;;;;;;;15.60;12.03;;;;;;;13.73;96.23;100469.90;1776290;80;21071;-58
2022/04/15 02:27:01;;;;;;;17.50;14.73;;;;;;;13.70;96.13;100465.05;1775016;80;20931;-68
2022/04/15 02:29:28;;;;;;;16.93;13.18;;;;;;;13.74;95.54;100470.20;1775797;80;21398;-58
2022/04/15 02:31:55;;;;;;;18.20;13.28;;;;;;;13.76;95.02;100466.09;1777175;80;21062;-57
2022/04/15 02:34:22;;;;;;;15.10;13.18;;;;;;;13.80;94.91;100467.30;1776689;80;21034;-58
2022/04/15 02:36:48;;;;;;;15.98;12.85;;;;;;;13.79;94.34;100473.05;1776657;80;21068;-57
2022/04/15 02:39:15;;;;;;;14.93;13.03;;;;;;;13.72;93.44;100466.18;1775494;80;20927;-68
2022/04/15 02:41:44;;;;;;;14.75;12.45;;;;;;;13.57;93.46;100472.89;1776050;80;21446;-57
2022/04/15 02:44:10;;;;;;;14.93;12.55;;;;;;;13.41;94.11;100470.59;1777120;80;20958;-56
2022/04/15 02:46:38;;;;;;;16.70;14.60;;;;;;;13.40;94.63;100467.17;1774952;80;20990;-57
2022/04/15 02:49:07;;;;;;;17.57;14.68;;;;;;;13.22;94.81;100465.08;1777327;80;20951;-58
2022/04/15 02:51:34;;;;;;;18.27;15.28;;;;;;;13.41;97.35;100467.50;1774401;80;20944;-64
2022/04/15 02:54:01;;;;;;;21.50;15.58;;;;;;;13.48;96.63;100465.69;1764761;80;21446;-56
2022/04/15 02:56:29;;;;;;;18.45;15.70;;;;;;;13.54;98.78;100465.42;1776837;80;20982;-59
2022/04/15 02:58:56;;;;;;;18.82;16.27;;;;;;;13.70;99.52;100459.01;1775893;80;21583;-57
2022/04/15 03:01:24;;;;;;;19.27;16.77;;;;;;;13.98;99.06;100466.70;1776939;80;20944;-57
2022/04/15 03:03:51;;;;;;;20.40;16.12;;;;;;;14.07;100.00;100467.63;1774322;80;21081;-60
2022/04/15 03:06:17;;;;;;;19.50;15.20;;;;;;;14.34;100.00;100476.31;1779240;80;21142;-57
2022/04/15 03:08:44;;;;;;;17.42;14.43;;;;;;;14.50;99.84;100484.30;1778020;80;21027;-57
2022/04/15 03:11:11;;;;;;;20.57;15.60;;;;;;;14.77;98.74;100489.51;1778445;80;21069;-57
2022/04/15 03:13:38;;;;;;;17.13;14.47;;;;;;;14.93;99.31;100485.67;1779609;80;22172;-59
2022/04/15 03:16:06;;;;;;;17.23;14.07;;;;;;;15.18;100.00;100492.34;1778740;80;21282;-61
2022/04/15 03:18:35;;;;;;;16.40;14.20;;;;;;;15.58;97.79;100489.86;1779456;80;21945;-57
2022/04/15 03:21:03;;;;;;;15.57;13.80;;;;;;;15.94;94.29;100488.97;1779332;80;21714;-57
2022/04/15 03:23:31;;;;;;;18.97;14.37;;;;;;;16.25;93.23;100495.53;1777872;80;21758;-57
2022/04/15 03:25:58;;;;;;;17.17;14.97;;;;;;;16.62;90.61;100494.30;1778585;79;21185;-62
2022/04/15 03:28:24;;;;;;;15.63;13.70;;;;;;;16.97;87.95;100491.97;1777910;80;21256;-56
2022/04/15 03:30:52;;;;;;;13.73;12.00;;;;;;;17.57;81.00;100496.50;1778248;80;21366;-57
2022/04/15 03:33:19;;;;;;;17.27;15.37;;;;;;;17.85;79.17;100499.92;1778245;80;21071;-56
2022/04/15 03:35:45;;;;;;;17.40;15.50;;;;;;;18.97;68.63;100507.02;1779363;80;21728;-58
2022/04/15 03:38:12;;;;;;;18.37;16.40;;;;;;;18.97;68.63;100507.02;1777537;79;21711;-59
2022/04/15 03:40:39;;;;;;;20.17;16.07;;;;;;;19.85;59.38;100505.03;1777360;80;22754;-58
2022/04/15 03:43:07;;;;;;;18.80;16.37;;;;;;;19.85;59.38;100505.03;1779353;80;21146;-59
2022/04/15 03:45:33;;;;;;;20.07;17.93;;;;;;;20.25;57.55;100512.86;1779573;80;21018;-57
2022/04/15 03:48:00;;;;;;;18.63;15.80;;;;;;;20.80;54.75;100500.73;1778177;80;21085;-57
2022/04/15 03:50:27;;;;;;;18.30;15.50;;;;;;;21.28;52.49;100503.97;1776391;80;21690;-58
2022/04/15 03:52:55;;;;;;;17.33;15.17;;;;;;;21.82;49.58;100504.55;1778104;80;21496;-57
2022/04/15 03:55:22;;;;;;;17.07;15.10;;;;;;;21.92;48.69;100501.20;1777306;80;21228;-57
2022/04/15 03:57:49;;;;;;;16.20;14.60;;;;;;;22.36;47.12;100505.84;1778512;80;21021;-57
2022/04/15 04:00:21;;;;;;;16.37;14.63;;;;;;;22.63;45.64;100507.61;1778394;80;20986;-70
2022/04/15 04:02:50;;;;;;;16.57;14.87;;;;;;;23.01;45.01;100505.97;1779697;80;22096;-58
2022/04/15 04:05:17;;;;;;;15.63;14.10;;;;;;;23.28;43.79;100510.33;1777286;80;20923;-57
2022/04/15 04:07:46;;;;;;;15.73;14.20;;;;;;;23.19;43.47;100510.58;1776494;80;20947;-57
2022/04/15 04:10:13;;;;;;;14.63;13.23;;;;;;;23.61;42.47;100509.09;1776869;80;20995;-69
2022/04/15 04:12:42;;;;;;;15.37;13.77;;;;;;;23.98;42.03;100508.91;1775831;80;21062;-59
2022/04/15 04:15:11;;;;;;;17.43;14.93;;;;;;;24.42;40.78;100511.56;1776979;80;20990;-59
2022/04/15 04:17:38;;;;;;;16.67;13.70;;;;;;;24.53;40.26;100511.02;1776486;80;20896;-58
2022/04/15 04:20:07;;;;;;;15.80;14.13;;;;;;;24.85;39.65;100510.16;1777115;80;22101;-57
2022/04/15 04:22:35;;;;;;;16.47;14.77;;;;;;;25.14;39.14;100516.19;1776927;80;20978;-65
2022/04/15 04:25:04;;;;;;;16.00;14.40;;;;;;;25.23;38.10;100517.23;1765040;80;21058;-57
2022/04/15 04:27:32;;;;;;;16.00;14.40;;;;;;;25.39;37.03;100518.75;1776961;80;21463;-58
2022/04/15 04:29:59;;;;;;;16.40;14.83;;;;;;;25.45;37.11;100512.83;1775614;80;21053;-59
2022/04/15 04:32:27;;;;;;;16.13;14.63;;;;;;;25.35;37.45;100515.58;1776510;80;22011;-60
2022/04/15 04:34:53;;;;;;;16.87;15.27;;;;;;;25.76;36.69;100523.31;1774305;80;20982;-58
2022/04/15 04:37:22;;;;;;;16.87;15.03;;;;;;;26.18;36.12;100525.45;1775536;80;21050;-56
2022/04/15 04:39:48;;;;;;;16.43;14.87;;;;;;;26.42;35.64;100524.16;1775142;80;21056;-57
2022/04/15 04:42:16;;;;;;;16.43;14.93;;;;;;;26.72;34.90;100531.64;1775839;80;21533;-59
2022/04/15 04:44:42;;;;;;;15.80;14.20;;;;;;;27.03;34.27;100537.44;1776022;80;21258;-59
2022/04/15 04:47:09;;;;;;;15.27;13.83;;;;;;;27.34;33.74;100539.22;1775785;80;21450;-58
2022/04/15 04:49:37;;;;;;;13.63;12.33;;;;;;;27.65;33.17;100535.56;1775995;80;21049;-57
2022/04/15 04:52:07;;;;;;;16.25;14.65;;;;;;;27.86;32.61;100539.57;1775679;80;21070;-57
2022/04/15 04:54:33;;;;;;;14.58;13.18;;;;;;;28.10;32.53;100535.97;1777296;80;21630;-58
2022/04/15 04:57:03;;;;;;;14.13;12.82;;;;;;;28.34;32.01;100539.33;1747216;80;21153;-58
2022/04/15 04:59:31;;;;;;;15.25;13.75;;;;;;;28.51;31.71;100542.01;1775786;80;21097;-58
2022/04/15 05:01:58;;;;;;;14.75;12.93;;;;;;;28.72;31.20;100539.21;1777263;80;20995;-58
2022/04/15 05:04:26;;;;;;;13.45;12.05;;;;;;;29.03;31.05;100532.72;1774804;80;20932;-58
2022/04/15 05:06:53;;;;;;;12.40;11.25;;;;;;;29.45;30.87;100527.27;1758004;80;21076;-62
2022/04/15 05:09:20;;;;;;;13.43;12.25;;;;;;;29.97;30.04;100527.70;1756505;80;21135;-57
2022/04/15 05:11:48;;;;;;;12.78;11.50;;;;;;;30.50;29.07;100530.95;1754555;81;21053;-57
2022/04/15 05:14:14;;;;;;;12.03;10.93;;;;;;;30.82;28.71;100529.03;1757022;80;21393;-57
2022/04/15 05:16:41;;;;;;;12.80;10.90;;;;;;;31.02;28.21;100533.83;1756494;80;21023;-57
2022/04/15 05:19:09;;;;;;;11.45;10.32;;;;;;;31.37;27.71;100532.58;1756654;80;21045;-69
2022/04/15 05:21:38;;;;;;;11.22;10.23;;;;;;;31.41;27.19;100538.92;1756708;80;22154;-58
2022/04/15 05:24:07;;;;;;;12.40;10.30;;;;;;;31.62;27.05;100537.16;1755018;81;21093;-57
2022/04/15 05:26:35;;;;;;;10.55;9.45;;;;;;;31.57;26.91;100533.84;1758114;80;21061;-57
2022/04/15 05:29:02;;;;;;;11.05;10.03;;;;;;;31.26;26.76;100538.80;1756933;80;21046;-58
2022/04/15 05:31:29;;;;;;;11.20;10.10;;;;;;;31.24;27.08;100535.05;1754903;80;20986;-57
2022/04/15 05:33:56;;;;;;;11.05;9.70;;;;;;;30.73;27.39;100549.16;1755958;80;21227;-57
2022/04/15 05:36:23;;;;;;;11.50;10.40;;;;;;;30.73;27.39;100549.16;1755228;81;21007;-57
2022/04/15 05:38:49;;;;;;;10.98;9.98;;;;;;;30.76;27.54;100554.75;1756610;80;21018;-58
2022/04/15 05:41:17;;;;;;;10.23;8.88;;;;;;;30.65;27.52;100548.03;1756451;80;21056;-58
2022/04/15 05:43:44;;;;;;;8.00;7.28;;;;;;;30.72;27.65;100556.45;1756191;80;21048;-58
2022/04/15 05:46:13;;;;;;;8.40;7.60;;;;;;;30.94;27.22;100546.71;1756974;80;21323;-59
2022/04/15 05:48:39;;;;;;;8.05;7.12;;;;;;;31.13;26.77;100547.23;1756758;80;21544;-57
2022/04/15 05:51:07;;;;;;;7.05;6.35;;;;;;;31.50;26.47;100541.05;1756986;80;21056;-56
2022/04/15 05:53:35;;;;;;;6.80;6.10;;;;;;;31.96;25.92;100547.16;1756486;80;21006;-60
2022/04/15 05:56:01;;;;;;;7.83;7.03;;;;;;;32.21;25.49;100549.57;1745417;80;21057;-57
2022/04/15 05:58:28;;;;;;;8.48;6.72;;;;;;;32.34;25.38;100551.03;1755657;80;21904;-59
2022/04/15 06:00:55;;;;;;;7.70;6.80;;;;;;;32.50;25.20;100554.81;1756815;80;21007;-57
2022/04/15 06:03:22;;;;;;;8.83;7.45;;;;;;;32.39;25.29;100557.59;1755229;81;20990;-60
2022/04/15 06:05:50;;;;;;;7.58;6.53;;;;;;;32.42;25.39;100555.08;1764254;80;21037;-58
2022/04/15 06:08:17;;;;;;;8.15;7.15;;;;;;;32.39;25.28;100552.20;1775306;80;21568;-59
2022/04/15 06:10:45;;;;;;;7.35;6.22;;;;;;;32.28;25.00;100555.01;1777201;80;21010;-57
2022/04/15 06:13:19;;;;;;;7.83;7.12;;;;;;;32.01;25.61;100550.79;1776929;80;21528;-57
2022/04/15 06:15:58;;;;;;;12.85;6.08;;;;;;;32.09;25.57;100553.49;1776126;80;20978;-57
2022/04/15 06:18:26;;;;;;;7.40;6.53;;;;;;;32.36;25.24;100549.61;1775643;80;22021;-55
2022/04/15 06:20:54;;;;;;;;;;;;;;;31.65;25.20;100545.17;1778361;80;20910;-55
2022/04/15 06:23:22;;;;;;;6.80;5.47;;;;;;;30.70;26.26;100555.95;1774675;80;21152;-56
2022/04/15 06:25:48;;;;;;;6.70;5.90;;;;;;;31.16;25.99;100557.94;1775897;80;21137;-59
2022/04/15 06:28:16;;;;;;;6.25;5.65;;;;;;;31.16;25.99;100557.94;1775515;80;20974;-57
2022/04/15 06:30:43;;;;;;;7.25;5.08;;;;;;;31.26;25.38;100551.70;1777384;80;21037;-58
2022/04/15 06:33:10;;;;;;;6.33;4.83;;;;;;;31.16;25.98;100547.95;1775741;80;21018;-57
2022/04/15 06:35:39;;;;;;;5.05;4.55;;;;;;;31.40;25.85;100556.17;1773921;80;21266;-57
2022/04/15 06:38:07;;;;;;;8.08;5.53;;;;;;;31.54;25.79;100556.83;1775378;80;20998;-69
2022/04/15 06:40:35;;;;;;;7.17;4.12;;;;;;;31.79;25.20;100550.41;1776123;80;21097;-57
2022/04/15 06:43:02;;;;;;;5.42;4.40;;;;;;;32.08;25.16;100552.45;1766210;80;21014;-59
2022/04/15 06:45:29;;;;;;;5.47;4.97;;;;;;;32.35;25.48;100551.27;1775630;80;20998;-58
2022/04/15 06:47:56;;;;;;;5.75;4.70;;;;;;;32.83;24.97;100555.55;1775727;80;21957;-57
2022/04/15 06:50:22;;;;;;;5.42;4.42;;;;;;;33.21;24.51;100553.38;1776265;80;21457;-58
2022/04/15 06:52:50;;;;;;;5.60;5.00;;;;;;;33.42;23.72;100554.97;1776132;80;21562;-57
2022/04/15 06:55:17;;;;;;;5.08;4.22;;;;;;;33.65;23.50;100554.10;1775467;80;21000;-58
2022/04/15 06:57:43;;;;;;;5.83;4.58;;;;;;;33.85;23.23;100555.75;1776242;80;21023;-58
2022/04/15 07:00:13;;;;;;;5.22;4.50;;;;;;;34.01;23.23;100555.94;1777139;80;21134;-70
2022/04/15 07:02:41;;;;;;;7.35;4.80;;;;;;;34.44;22.39;100556.02;1775797;80;20962;-57
2022/04/15 07:05:09;;;;;;;4.60;4.08;;;;;;;34.56;21.82;100554.73;1775787;80;21322;-57
2022/04/15 07:07:40;;;;;;;5.60;4.22;;;;;;;34.71;21.94;100554.63;1778769;80;21078;-58
2022/04/15 07:10:10;;;;;;;4.72;3.62;;;;;;;34.59;22.31;100554.84;1778315;80;21042;-57
2022/04/15 07:12:38;;;;;;;4.40;3.65;;;;;;;34.68;22.33;100562.84;1778139;80;21129;-59
2022/04/15 07:15:06;;;;;;;6.22;4.35;;;;;;;34.74;22.07;100561.50;1779044;80;20998;-58
2022/04/15 07:17:33;;;;;;;4.75;3.85;;;;;;;34.80;21.70;100563.41;1779100;80;20939;-56
2022/04/15 07:20:01;;;;;;;4.87;4.30;;;;;;;34.86;21.97;100558.79;1767374;80;21478;-58
2022/04/15 07:22:28;;;;;;;5.20;4.08;;;;;;;35.03;21.76;100563.76;1779240;80;21677;-70
2022/04/15 07:24:55;;;;;;;3.60;3.08;;;;;;;34.94;21.60;100563.86;1778175;80;21291;-58
2022/04/15 07:27:22;;;;;;;4.60;3.87;;;;;;;34.92;21.44;100566.11;1779199;80;21057;-57
2022/04/15 07:29:49;;;;;;;5.60;3.85;;;;;;;34.82;21.33;100567.94;1778725;80;21072;-56
2022/04/15 07:32:22;;;;;;;6.85;3.77;;;;;;;34.62;21.36;100566.33;1779316;80;20975;-56
2022/04/15 07:34:51;;;;;;;3.87;3.17;;;;;;;34.80;21.58;100564.20;1767643;80;21000;-56
2022/04/15 07:37:17;;;;;;;4.45;3.52;;;;;;;34.94;21.21;100562.50;1778033;80;21150;-55
2022/04/15 07:39:45;;;;;;;4.80;3.25;;;;;;;34.70;21.28;100572.80;1778625;80;20895;-55
2022/04/15 07:42:12;;;;;;;4.95;3.10;;;;;;;34.82;21.13;100570.08;1779287;80;21682;-55
2022/04/15 07:44:40;;;;;;;4.47;3.27;;;;;;;34.93;20.85;100562.28;1779071;80;20963;-67
2022/04/15 07:47:08;;;;;;;3.70;2.77;;;;;;;34.77;21.13;100562.16;1778625;80;21003;-56
2022/04/15 07:49:35;;;;;;;4.75;3.35;;;;;;;34.68;20.77;100563.41;1778394;80;21299;-58
2022/04/15 07:52:04;;;;;;;5.28;3.05;;;;;;;34.42;21.37;100565.84;1767079;80;21025;-56
2022/04/15 07:54:31;;;;;;;3.77;2.93;;;;;;;34.19;21.23;100565.47;1779296;80;21078;-56
2022/04/15 07:56:59;;;;;;;4.50;3.67;;;;;;;34.33;21.29;100565.16;1777975;80;20943;-55
2022/04/15 07:59:28;;;;;;;4.62;2.80;;;;;;;34.29;21.13;100560.98;1779391;80;21009;-57
2022/04/15 08:01:55;;;;;;;4.42;3.17;;;;;;;34.43;20.77;100562.00;1778273;80;21232;-55
2022/04/15 08:04:22;;;;;;;3.70;3.02;;;;;;;34.54;20.70;100565.09;1779367;80;20982;-56
2022/04/15 08:06:48;;;;;;;4.10;2.95;;;;;;;34.70;20.44;100567.91;1778851;80;21595;-67
2022/04/15 08:09:17;;;;;;;3.83;2.80;;;;;;;34.52;20.45;100564.66;1778402;80;21014;-56
2022/04/15 08:11:45;;;;;;;4.62;2.95;;;;;;;34.53;20.17;100564.88;1778599;80;21050;-58
2022/04/15 08:14:12;;;;;;;4.97;3.33;;;;;;;34.18;20.36;100561.75;1779432;80;21230;-56
2022/04/15 08:16:39;;;;;;;4.80;2.83;;;;;;;33.99;20.71;100567.11;1779059;80;21417;-63
2022/04/15 08:19:06;;;;;;;4.08;3.30;;;;;;;33.86;20.45;100562.73;1778291;80;20892;-57
2022/04/15 08:21:33;;;;;;;4.95;3.20;;;;;;;33.70;20.60;100565.83;1779034;80;22248;-55
2022/04/15 08:24:01;;;;;;;4.30;3.15;;;;;;;33.62;20.84;100567.48;1767111;80;21102;-55
2022/04/15 08:26:29;;;;;;;5.15;3.47;;;;;;;33.71;20.97;100566.84;1778504;80;21413;-67
2022/04/15 08:28:56;;;;;;;4.25;3.35;;;;;;;33.83;20.90;100562.86;1778628;80;21074;-56
2022/04/15 08:31:23;;;;;;;4.22;3.45;;;;;;;34.02;21.04;100565.09;1778711;80;21555;-56
2022/04/15 08:33:51;;;;;;;5.28;2.95;;;;;;;34.14;20.65;100564.33;1779291;80;21038;-56
2022/04/15 08:36:17;;;;;;;4.25;3.10;;;;;;;34.05;20.19;100558.98;1779529;79;21547;-56
2022/04/15 08:38:45;;;;;;;3.83;3.08;;;;;;;34.05;20.19;100558.98;1777702;80;20959;-57
2022/04/15 08:41:14;;;;;;;4.83;3.25;;;;;;;34.16;19.97;100566.13;1778815;80;21403;-55
2022/04/15 08:43:42;;;;;;;3.60;2.80;;;;;;;34.10;20.15;100565.56;1779125;80;20994;-54
2022/04/15 08:46:09;;;;;;;4.08;2.70;;;;;;;34.01;19.95;100565.41;1778777;80;20977;-56
2022/04/15 08:48:35;;;;;;;4.65;3.15;;;;;;;33.62;20.19;100568.27;1778439;80;20911;-65
2022/04/15 08:51:04;;;;;;;5.42;3.12;;;;;;;33.38;20.33;100572.97;1778227;79;20962;-56
2022/04/15 08:53:33;;;;;;;4.08;2.80;;;;;;;33.42;20.52;100573.89;1778162;80;21029;-55
2022/04/15 08:56:00;;;;;;;4.22;2.95;;;;;;;33.37;20.39;100571.93;1779278;80;20987;-55
2022/04/15 08:58:29;;;;;;;4.50;3.05;;;;;;;33.35;20.42;100568.78;1778371;80;21023;-62
2022/04/15 09:00:56;;;;;;;4.35;3.22;;;;;;;33.64;20.17;100570.10;1778855;80;21081;-55
2022/04/15 09:03:23;;;;;;;3.95;3.05;;;;;;;33.48;20.43;100571.02;1779356;80;21146;-59
2022/04/15 09:05:51;;;;;;;5.50;3.52;;;;;;;33.69;20.35;100567.75;1778994;79;21531;-55
2022/04/15 09:08:18;;;;;;;5.55;3.30;;;;;;;33.99;19.89;100556.29;1775862;80;21056;-55
2022/04/15 09:10:56;;;;;;;5.08;2.77;;;;;;;34.10;19.62;100557.45;1776788;80;20990;-62
2022/04/15 09:13:28;;;;;;;4.83;3.08;;;;;;;33.97;19.52;100558.48;1776689;80;20971;-55
2022/04/15 09:15:53;;;;;;;5.37;3.83;;;;;;;33.84;20.00;100562.29;1777166;80;22001;-56
2022/04/15 09:18:36;;;;;;;4.10;3.42;;;;;;;33.36;19.70;100561.69;1774816;80;20927;-63
2022/04/15 09:21:21;;;;;;;4.90;3.85;;;;;;;33.48;20.40;100554.80;1766330;80;20995;-56
2022/04/15 09:23:51;;;;;;;4.30;3.10;;;;;;;33.68;19.86;100551.84;1777192;80;22376;-55
2022/04/15 09:26:21;;;;;;;7.62;4.17;;;;;;;33.83;20.01;100549.88;1774585;80;20999;-55
2022/04/15 09:28:49;;;;;;;4.33;3.65;;;;;;;33.96;20.00;100550.16;1777201;80;21133;-57
2022/04/15 09:31:17;;;;;;;6.20;3.90;;;;;;;33.81;20.45;100553.48;1774654;80;22235;-55
2022/04/15 09:33:59;;;;;;;5.35;3.77;;;;;;;33.83;20.03;100545.28;1776131;80;21088;-54
2022/04/15 09:36:36;;;;;;;4.63;3.70;;;;;;;33.63;19.23;100549.57;1776273;80;21521;-55
2022/04/15 09:39:14;;;;;;;4.60;3.27;;;;;;;33.52;20.13;100549.75;1776293;80;20919;-55
2022/04/15 09:41:56;;;;;;;4.75;3.90;;;;;;;33.37;20.25;100546.26;1745935;80;21311;-56
2022/04/15 09:44:31;;;;;;;4.92;3.80;;;;;;;33.34;20.94;100542.89;1775847;80;20983;-57
2022/04/15 09:47:04;;;;;;;4.87;3.52;;;;;;;33.34;21.08;100540.19;1775990;80;21023;-66
2022/04/15 09:49:34;;;;;;;4.65;3.47;;;;;;;33.53;20.67;100541.89;1776337;80;20966;-56
2022/04/15 09:52:03;;;;;;;6.00;3.58;;;;;;;33.81;20.86;100532.64;1764823;80;21034;-55
2022/04/15 09:54:31;;;;;;;4.40;3.33;;;;;;;34.42;20.34;100529.87;1776945;80;20998;-57
2022/04/15 09:57:00;;;;;;;4.75;2.75;;;;;;;34.46;19.25;100528.84;1776107;80;21053;-56
2022/04/15 09:59:29;;;;;;;4.75;3.60;;;;;;;34.06;19.70;100526.78;1774917;80;20928;-56
2022/04/15 10:01:58;;;;;;;5.30;3.20;;;;;;;33.55;20.07;100528.81;1774799;80;21520;-56
2022/04/15 10:04:26;;;;;;;5.00;3.47;;;;;;;32.99;20.44;100534.99;1774643;80;21102;-56
2022/04/15 10:06:52;;;;;;;5.47;3.10;;;;;;;32.64;21.44;100537.85;1776632;79;21777;-64
2022/04/15 10:09:21;;;;;;;7.10;3.33;;;;;;;32.37;21.56;100530.95;1779520;80;21092;-55
2022/04/15 10:11:49;;;;;;;5.53;3.40;;;;;;;32.21;21.81;100525.86;1778890;80;20997;-55
2022/04/15 10:14:17;;;;;;;3.50;2.80;;;;;;;31.90;22.43;100524.74;1779549;80;21183;-55
2022/04/15 10:16:44;;;;;;;6.60;2.80;;;;;;;31.97;21.61;100526.38;1779322;80;21116;-56
2022/04/15 10:19:12;;;;;;;4.07;2.77;;;;;;;31.93;21.72;100528.13;1778327;80;20986;-65
2022/04/15 10:21:45;;;;;;;4.33;2.60;;;;;;;32.09;21.92;100533.27;1779074;80;21567;-56
2022/04/15 10:24:13;;;;;;;3.77;2.83;;;;;;;32.17;21.47;100524.36;1776220;80;20995;-56
2022/04/15 10:26:42;;;;;;;4.97;3.63;;;;;;;31.90;21.66;100527.44;1779020;80;21047;-55
2022/04/15 10:29:12;;;;;;;4.07;2.90;;;;;;;31.41;21.67;100528.15;1778561;80;21001;-65
2022/04/15 10:31:45;;;;;;;5.45;3.00;;;;;;;31.23;22.74;100525.39;1779379;80;22472;-56
2022/04/15 10:34:16;;;;;;;6.30;2.97;;;;;;;31.54;22.66;100521.80;1779009;80;21500;-56
2022/04/15 10:36:52;;;;;;;5.50;2.60;;;;;;;31.88;22.11;100526.95;1778425;80;21026;-56
2022/04/15 10:39:23;;;;;;;4.13;2.80;;;;;;;32.03;21.85;100521.05;1780238;80;21041;-55
2022/04/15 10:41:55;;;;;;;6.30;2.80;;;;;;;32.35;22.04;100522.94;1778862;80;21507;-59
2022/04/15 10:44:37;;;;;;;4.25;3.12;;;;;;;32.60;21.93;100513.98;1778805;80;21163;-56
2022/04/15 10:47:19;;;;;;;3.40;2.50;;;;;;;32.85;21.15;100512.83;1778273;80;20993;-55
2022/04/15 10:50:06;;;;;;;4.20;2.90;;;;;;;32.85;21.47;100506.08;1778239;80;21026;-58
2022/04/15 10:52:35;;;;;;;4.43;2.40;;;;;;;32.60;21.57;100509.93;1778570;80;21347;-55
2022/04/15 10:55:07;;;;;;;4.63;2.80;;;;;;;32.42;21.22;100511.91;1767303;80;21029;-56
2022/04/15 10:57:40;;;;;;;5.00;3.33;;;;;;;31.99;21.24;100510.67;1778944;80;20967;-55
2022/04/15 11:03:21;;;;;;;3.90;2.43;;;;;;;31.15;22.20;100504.64;1778260;80;21082;-55
2022/04/15 11:05:54;;;;;;;4.20;2.50;;;;;;;31.05;22.96;100508.97;1761135;80;21076;-55
2022/04/15 11:08:22;;;;;;;4.23;2.50;;;;;;;31.35;23.11;100496.52;1763738;80;21021;-56
2022/04/15 11:10:58;;;;;;;4.13;2.57;;;;;;;31.71;22.73;100501.58;1757986;81;20927;-57
2022/04/15 11:13:49;;;;;;;5.37;3.20;;;;;;;32.13;22.02;100504.54;1758029;80;21915;-55
2022/04/15 11:16:18;;;;;;;5.70;3.90;;;;;;;32.21;22.04;100503.72;1758526;81;20979;-56
2022/04/15 11:18:52;;;;;;;6.10;3.87;;;;;;;32.26;21.87;100504.66;1758389;80;21003;-58
2022/04/15 11:21:37;;;;;;;5.13;3.13;;;;;;;31.83;22.02;100497.45;1737120;80;21032;-57
2022/04/15 11:24:12;;;;;;;6.27;2.60;;;;;;;31.13;22.41;100500.11;1756055;80;21181;-56
2022/04/15 11:26:42;;;;;;;4.57;3.00;;;;;;;30.56;22.75;100495.27;1754154;81;20959;-57